sensor_id;sensor_type;location;lat;lon;timestamp;temperature;humidity
44537;DHT22;30245;51.966;6.292;2023-04-06T00:01:31;12.80;32.80
44537;DHT22;30245;51.966;6.292;2023-04-06T00:03:56;12.80;32.90
44537;DHT22;30245;51.966;6.292;2023-04-06T00:06:22;12.80;32.90
44537;DHT22;30245;51.966;6.292;2023-04-06T00:08:47;12.70;33.00
44537;DHT22;30245;51.966;6.292;2023-04-06T00:11:13;12.60;33.10
44537;DHT22;30245;51.966;6.292;2023-04-06T00:13:39;12.50;33.10
44537;DHT22;30245;51.966;6.292;2023-04-06T00:16:04;12.40;33.10
44537;DHT22;30245;51.966;6.292;2023-04-06T00:18:31;12.40;33.20
44537;DHT22;30245;51.966;6.292;2023-04-06T00:20:57;12.40;33.30
44537;DHT22;30245;51.966;6.292;2023-04-06T00:23:23;12.30;33.50
44537;DHT22;30245;51.966;6.292;2023-04-06T00:25:48;12.20;33.60
44537;DHT22;30245;51.966;6.292;2023-04-06T00:28:14;12.20;33.80
44537;DHT22;30245;51.966;6.292;2023-04-06T00:30:40;12.20;33.90
44537;DHT22;30245;51.966;6.292;2023-04-06T00:33:06;12.20;33.90
44537;DHT22;30245;51.966;6.292;2023-04-06T00:35:32;12.20;34.00
44537;DHT22;30245;51.966;6.292;2023-04-06T00:37:58;12.20;34.10
44537;DHT22;30245;51.966;6.292;2023-04-06T00:40:23;12.20;34.80
44537;DHT22;30245;51.966;6.292;2023-04-06T00:42:50;12.20;34.20
44537;DHT22;30245;51.966;6.292;2023-04-06T00:45:15;12.20;34.30
44537;DHT22;30245;51.966;6.292;2023-04-06T00:47:41;12.20;34.30
44537;DHT22;30245;51.966;6.292;2023-04-06T00:50:07;12.20;34.40
44537;DHT22;30245;51.966;6.292;2023-04-06T00:52:34;12.10;34.40
44537;DHT22;30245;51.966;6.292;2023-04-06T00:55:01;12.00;34.50
44537;DHT22;30245;51.966;6.292;2023-04-06T00:57:27;12.00;34.60
44537;DHT22;30245;51.966;6.292;2023-04-06T00:59:53;12.00;34.80
44537;DHT22;30245;51.966;6.292;2023-04-06T01:02:18;11.90;34.70
44537;DHT22;30245;51.966;6.292;2023-04-06T01:04:44;11.80;34.80
44537;DHT22;30245;51.966;6.292;2023-04-06T01:07:10;11.70;35.00
44537;DHT22;30245;51.966;6.292;2023-04-06T01:09:36;11.70;35.20
44537;DHT22;30245;51.966;6.292;2023-04-06T01:12:01;11.60;35.30
44537;DHT22;30245;51.966;6.292;2023-04-06T01:14:27;11.60;35.40
44537;DHT22;30245;51.966;6.292;2023-04-06T01:16:53;11.60;35.50
44537;DHT22;30245;51.966;6.292;2023-04-06T01:19:19;11.60;35.70
44537;DHT22;30245;51.966;6.292;2023-04-06T01:21:46;11.60;35.80
44537;DHT22;30245;51.966;6.292;2023-04-06T01:24:11;11.60;35.90
44537;DHT22;30245;51.966;6.292;2023-04-06T01:26:38;11.60;35.90
44537;DHT22;30245;51.966;6.292;2023-04-06T01:29:04;11.50;36.00
44537;DHT22;30245;51.966;6.292;2023-04-06T01:31:30;11.50;36.10
44537;DHT22;30245;51.966;6.292;2023-04-06T01:33:55;11.50;36.20
44537;DHT22;30245;51.966;6.292;2023-04-06T01:36:21;11.40;36.30
44537;DHT22;30245;51.966;6.292;2023-04-06T01:38:47;11.40;36.40
44537;DHT22;30245;51.966;6.292;2023-04-06T01:41:13;11.40;36.50
44537;DHT22;30245;51.966;6.292;2023-04-06T01:43:38;11.30;36.50
44537;DHT22;30245;51.966;6.292;2023-04-06T01:46:04;11.20;36.50
44537;DHT22;30245;51.966;6.292;2023-04-06T01:48:31;11.10;36.60
44537;DHT22;30245;51.966;6.292;2023-04-06T01:50:56;11.10;36.70
44537;DHT22;30245;51.966;6.292;2023-04-06T01:53:22;11.10;36.80
44537;DHT22;30245;51.966;6.292;2023-04-06T01:55:48;11.10;36.80
44537;DHT22;30245;51.966;6.292;2023-04-06T01:58:13;11.00;36.90
44537;DHT22;30245;51.966;6.292;2023-04-06T02:00:40;11.00;36.90
44537;DHT22;30245;51.966;6.292;2023-04-06T02:03:06;11.00;37.60
44537;DHT22;30245;51.966;6.292;2023-04-06T02:05:33;11.00;37.00
44537;DHT22;30245;51.966;6.292;2023-04-06T02:08:04;11.00;37.10
44537;DHT22;30245;51.966;6.292;2023-04-06T02:10:31;11.00;37.80
44537;DHT22;30245;51.966;6.292;2023-04-06T02:12:56;11.00;37.10
44537;DHT22;30245;51.966;6.292;2023-04-06T02:15:22;10.90;37.20
44537;DHT22;30245;51.966;6.292;2023-04-06T02:17:47;10.90;37.20
44537;DHT22;30245;51.966;6.292;2023-04-06T02:20:13;10.90;37.30
44537;DHT22;30245;51.966;6.292;2023-04-06T02:22:39;10.90;37.40
44537;DHT22;30245;51.966;6.292;2023-04-06T02:25:05;10.80;37.40
44537;DHT22;30245;51.966;6.292;2023-04-06T02:27:30;10.70;37.40
44537;DHT22;30245;51.966;6.292;2023-04-06T02:29:56;10.70;37.50
44537;DHT22;30245;51.966;6.292;2023-04-06T02:32:22;10.60;37.60
44537;DHT22;30245;51.966;6.292;2023-04-06T02:34:47;10.60;37.70
44537;DHT22;30245;51.966;6.292;2023-04-06T02:37:13;10.60;37.80
44537;DHT22;30245;51.966;6.292;2023-04-06T02:39:38;10.60;37.70
44537;DHT22;30245;51.966;6.292;2023-04-06T02:42:04;10.60;37.80
44537;DHT22;30245;51.966;6.292;2023-04-06T02:44:30;10.50;37.80
44537;DHT22;30245;51.966;6.292;2023-04-06T02:46:55;10.50;37.90
44537;DHT22;30245;51.966;6.292;2023-04-06T02:49:21;10.40;38.00
44537;DHT22;30245;51.966;6.292;2023-04-06T02:51:47;10.40;38.00
44537;DHT22;30245;51.966;6.292;2023-04-06T02:54:13;10.40;38.10
44537;DHT22;30245;51.966;6.292;2023-04-06T02:56:38;10.30;38.10
44537;DHT22;30245;51.966;6.292;2023-04-06T02:59:04;10.30;38.20
44537;DHT22;30245;51.966;6.292;2023-04-06T03:01:29;10.30;38.20
44537;DHT22;30245;51.966;6.292;2023-04-06T03:03:55;10.20;38.30
44537;DHT22;30245;51.966;6.292;2023-04-06T03:06:21;10.10;38.30
44537;DHT22;30245;51.966;6.292;2023-04-06T03:08:47;10.10;38.30
44537;DHT22;30245;51.966;6.292;2023-04-06T03:11:12;10.10;38.40
44537;DHT22;30245;51.966;6.292;2023-04-06T03:13:38;10.10;38.50
44537;DHT22;30245;51.966;6.292;2023-04-06T03:16:05;10.00;38.50
44537;DHT22;30245;51.966;6.292;2023-04-06T03:18:31;10.10;38.60
44537;DHT22;30245;51.966;6.292;2023-04-06T03:20:56;10.10;39.30
44537;DHT22;30245;51.966;6.292;2023-04-06T03:23:22;10.10;38.70
44537;DHT22;30245;51.966;6.292;2023-04-06T03:25:48;10.10;38.70
44537;DHT22;30245;51.966;6.292;2023-04-06T03:28:14;10.20;38.70
44537;DHT22;30245;51.966;6.292;2023-04-06T03:30:40;10.20;38.70
44537;DHT22;30245;51.966;6.292;2023-04-06T03:33:05;10.20;38.70
44537;DHT22;30245;51.966;6.292;2023-04-06T03:35:31;10.20;38.70
44537;DHT22;30245;51.966;6.292;2023-04-06T03:37:56;10.20;38.70
44537;DHT22;30245;51.966;6.292;2023-04-06T03:40:23;10.20;38.70
44537;DHT22;30245;51.966;6.292;2023-04-06T03:42:48;10.20;38.70
44537;DHT22;30245;51.966;6.292;2023-04-06T03:45:14;10.20;38.70
44537;DHT22;30245;51.966;6.292;2023-04-06T03:47:39;10.20;38.70
44537;DHT22;30245;51.966;6.292;2023-04-06T03:50:05;10.10;38.70
44537;DHT22;30245;51.966;6.292;2023-04-06T03:52:31;10.10;38.70
44537;DHT22;30245;51.966;6.292;2023-04-06T03:54:57;10.10;38.80
44537;DHT22;30245;51.966;6.292;2023-04-06T03:57:22;10.00;38.80
44537;DHT22;30245;51.966;6.292;2023-04-06T03:59:48;10.00;38.90
44537;DHT22;30245;51.966;6.292;2023-04-06T04:02:14;10.00;38.80
44537;DHT22;30245;51.966;6.292;2023-04-06T04:04:39;10.00;38.80
44537;DHT22;30245;51.966;6.292;2023-04-06T04:07:05;10.00;38.80
44537;DHT22;30245;51.966;6.292;2023-04-06T04:09:31;10.00;38.90
44537;DHT22;30245;51.966;6.292;2023-04-06T04:11:56;10.00;38.90
44537;DHT22;30245;51.966;6.292;2023-04-06T04:14:22;10.00;38.90
44537;DHT22;30245;51.966;6.292;2023-04-06T04:16:47;10.00;38.90
44537;DHT22;30245;51.966;6.292;2023-04-06T04:19:13;9.90;38.90
44537;DHT22;30245;51.966;6.292;2023-04-06T04:21:43;10.00;39.00
44537;DHT22;30245;51.966;6.292;2023-04-06T04:24:10;10.00;39.00
44537;DHT22;30245;51.966;6.292;2023-04-06T04:26:35;10.00;39.00
44537;DHT22;30245;51.966;6.292;2023-04-06T04:29:01;10.00;39.00
44537;DHT22;30245;51.966;6.292;2023-04-06T04:31:27;10.00;39.00
44537;DHT22;30245;51.966;6.292;2023-04-06T04:33:52;9.90;39.00
44537;DHT22;30245;51.966;6.292;2023-04-06T04:36:18;9.90;39.00
44537;DHT22;30245;51.966;6.292;2023-04-06T04:38:43;9.90;39.10
44537;DHT22;30245;51.966;6.292;2023-04-06T04:41:09;9.80;39.10
44537;DHT22;30245;51.966;6.292;2023-04-06T04:43:35;9.80;39.20
44537;DHT22;30245;51.966;6.292;2023-04-06T04:46:00;9.70;39.20
44537;DHT22;30245;51.966;6.292;2023-04-06T04:48:26;9.70;39.30
44537;DHT22;30245;51.966;6.292;2023-04-06T04:50:51;9.70;39.30
44537;DHT22;30245;51.966;6.292;2023-04-06T04:53:17;9.70;39.30
44537;DHT22;30245;51.966;6.292;2023-04-06T04:55:43;9.70;39.30
44537;DHT22;30245;51.966;6.292;2023-04-06T04:58:08;9.70;39.40
44537;DHT22;30245;51.966;6.292;2023-04-06T05:00:36;9.70;39.40
44537;DHT22;30245;51.966;6.292;2023-04-06T05:03:02;9.80;39.40
44537;DHT22;30245;51.966;6.292;2023-04-06T05:05:29;9.80;39.40
44537;DHT22;30245;51.966;6.292;2023-04-06T05:07:56;9.80;39.40
44537;DHT22;30245;51.966;6.292;2023-04-06T05:10:22;9.80;39.40
44537;DHT22;30245;51.966;6.292;2023-04-06T05:12:47;9.80;39.40
44537;DHT22;30245;51.966;6.292;2023-04-06T05:15:13;9.80;39.50
44537;DHT22;30245;51.966;6.292;2023-04-06T05:17:39;9.80;39.50
44537;DHT22;30245;51.966;6.292;2023-04-06T05:20:05;9.80;39.60
44537;DHT22;30245;51.966;6.292;2023-04-06T05:22:31;9.70;39.60
44537;DHT22;30245;51.966;6.292;2023-04-06T05:24:57;9.70;39.70
44537;DHT22;30245;51.966;6.292;2023-04-06T05:27:22;9.70;39.80
44537;DHT22;30245;51.966;6.292;2023-04-06T05:29:49;9.70;39.80
44537;DHT22;30245;51.966;6.292;2023-04-06T05:32:14;9.70;39.80
44537;DHT22;30245;51.966;6.292;2023-04-06T05:34:40;9.80;39.80
44537;DHT22;30245;51.966;6.292;2023-04-06T05:37:06;9.80;39.70
44537;DHT22;30245;51.966;6.292;2023-04-06T05:39:31;9.80;39.80
44537;DHT22;30245;51.966;6.292;2023-04-06T05:41:57;9.90;39.80
44537;DHT22;30245;51.966;6.292;2023-04-06T05:44:22;9.90;39.80
44537;DHT22;30245;51.966;6.292;2023-04-06T05:46:48;9.90;39.90
44537;DHT22;30245;51.966;6.292;2023-04-06T05:49:14;9.90;40.60
44537;DHT22;30245;51.966;6.292;2023-04-06T05:51:39;9.90;40.00
44537;DHT22;30245;51.966;6.292;2023-04-06T05:54:05;9.90;40.00
44537;DHT22;30245;51.966;6.292;2023-04-06T05:56:31;9.90;40.10
44537;DHT22;30245;51.966;6.292;2023-04-06T05:58:57;9.90;40.20
44537;DHT22;30245;51.966;6.292;2023-04-06T06:01:22;10.00;40.30
44537;DHT22;30245;51.966;6.292;2023-04-06T06:03:48;10.00;40.30
44537;DHT22;30245;51.966;6.292;2023-04-06T06:06:13;10.10;40.40
44537;DHT22;30245;51.966;6.292;2023-04-06T06:08:39;10.10;40.50
44537;DHT22;30245;51.966;6.292;2023-04-06T06:11:05;10.20;40.50
44537;DHT22;30245;51.966;6.292;2023-04-06T06:13:31;10.30;40.60
44537;DHT22;30245;51.966;6.292;2023-04-06T06:15:56;10.30;40.60
44537;DHT22;30245;51.966;6.292;2023-04-06T06:18:22;10.40;40.60
44537;DHT22;30245;51.966;6.292;2023-04-06T06:20:47;10.40;40.60
44537;DHT22;30245;51.966;6.292;2023-04-06T06:23:13;10.50;40.70
44537;DHT22;30245;51.966;6.292;2023-04-06T06:25:39;10.50;40.70
44537;DHT22;30245;51.966;6.292;2023-04-06T06:28:04;10.60;40.80
44537;DHT22;30245;51.966;6.292;2023-04-06T06:30:30;10.60;40.80
44537;DHT22;30245;51.966;6.292;2023-04-06T06:32:56;10.70;40.80
44537;DHT22;30245;51.966;6.292;2023-04-06T06:35:21;10.80;40.90
44537;DHT22;30245;51.966;6.292;2023-04-06T06:37:47;10.80;40.90
44537;DHT22;30245;51.966;6.292;2023-04-06T06:40:13;10.90;40.90
44537;DHT22;30245;51.966;6.292;2023-04-06T06:42:41;11.00;40.80
44537;DHT22;30245;51.966;6.292;2023-04-06T06:45:07;11.10;40.80
44537;DHT22;30245;51.966;6.292;2023-04-06T06:47:33;11.10;40.80
44537;DHT22;30245;51.966;6.292;2023-04-06T06:49:59;11.10;40.90
44537;DHT22;30245;51.966;6.292;2023-04-06T06:52:24;11.20;41.00
44537;DHT22;30245;51.966;6.292;2023-04-06T06:54:50;11.20;41.10
44537;DHT22;30245;51.966;6.292;2023-04-06T06:57:15;11.20;41.20
44537;DHT22;30245;51.966;6.292;2023-04-06T06:59:41;11.30;41.40
44537;DHT22;30245;51.966;6.292;2023-04-06T07:02:07;11.30;41.40
44537;DHT22;30245;51.966;6.292;2023-04-06T07:04:32;11.30;41.60
44537;DHT22;30245;51.966;6.292;2023-04-06T07:06:58;11.30;41.70
44537;DHT22;30245;51.966;6.292;2023-04-06T07:09:23;11.30;41.90
44537;DHT22;30245;51.966;6.292;2023-04-06T07:11:49;11.40;42.00
44537;DHT22;30245;51.966;6.292;2023-04-06T07:14:15;11.50;42.00
44537;DHT22;30245;51.966;6.292;2023-04-06T07:16:41;11.50;41.90
44537;DHT22;30245;51.966;6.292;2023-04-06T07:19:07;11.60;41.90
44537;DHT22;30245;51.966;6.292;2023-04-06T07:21:34;11.70;42.00
44537;DHT22;30245;51.966;6.292;2023-04-06T07:23:59;11.70;41.90
44537;DHT22;30245;51.966;6.292;2023-04-06T07:26:25;11.90;42.00
44537;DHT22;30245;51.966;6.292;2023-04-06T07:28:50;11.90;42.00
44537;DHT22;30245;51.966;6.292;2023-04-06T07:31:16;12.00;42.10
44537;DHT22;30245;51.966;6.292;2023-04-06T07:33:42;12.10;42.10
44537;DHT22;30245;51.966;6.292;2023-04-06T07:36:07;12.00;42.00
44537;DHT22;30245;51.966;6.292;2023-04-06T07:38:33;12.20;42.00
44537;DHT22;30245;51.966;6.292;2023-04-06T07:40:59;12.30;41.90
44537;DHT22;30245;51.966;6.292;2023-04-06T07:43:25;12.50;41.90
44537;DHT22;30245;51.966;6.292;2023-04-06T07:45:50;12.50;41.70
44537;DHT22;30245;51.966;6.292;2023-04-06T07:48:16;12.60;41.70
44537;DHT22;30245;51.966;6.292;2023-04-06T07:50:42;12.60;41.70
44537;DHT22;30245;51.966;6.292;2023-04-06T07:53:08;12.70;41.70
44537;DHT22;30245;51.966;6.292;2023-04-06T07:55:34;12.80;41.70
44537;DHT22;30245;51.966;6.292;2023-04-06T07:58:00;12.90;41.70
44537;DHT22;30245;51.966;6.292;2023-04-06T08:00:25;13.00;41.60
44537;DHT22;30245;51.966;6.292;2023-04-06T08:02:51;13.10;41.50
44537;DHT22;30245;51.966;6.292;2023-04-06T08:05:16;13.20;41.50
44537;DHT22;30245;51.966;6.292;2023-04-06T08:07:43;13.20;41.40
44537;DHT22;30245;51.966;6.292;2023-04-06T08:10:09;13.30;41.30
44537;DHT22;30245;51.966;6.292;2023-04-06T08:12:35;13.40;41.30
44537;DHT22;30245;51.966;6.292;2023-04-06T08:15:01;13.50;41.20
44537;DHT22;30245;51.966;6.292;2023-04-06T08:17:28;13.60;41.20
44537;DHT22;30245;51.966;6.292;2023-04-06T08:19:55;13.70;41.10
44537;DHT22;30245;51.966;6.292;2023-04-06T08:22:21;13.80;41.00
44537;DHT22;30245;51.966;6.292;2023-04-06T08:24:46;14.00;40.90
44537;DHT22;30245;51.966;6.292;2023-04-06T08:27:12;14.10;40.80
44537;DHT22;30245;51.966;6.292;2023-04-06T08:29:40;14.30;40.60
44537;DHT22;30245;51.966;6.292;2023-04-06T08:32:05;14.40;40.40
44537;DHT22;30245;51.966;6.292;2023-04-06T08:34:34;14.50;40.40
44537;DHT22;30245;51.966;6.292;2023-04-06T08:37:00;14.60;40.20
44537;DHT22;30245;51.966;6.292;2023-04-06T08:39:26;14.80;40.20
44537;DHT22;30245;51.966;6.292;2023-04-06T08:41:53;14.80;39.70
44537;DHT22;30245;51.966;6.292;2023-04-06T08:44:22;14.80;39.60
44537;DHT22;30245;51.966;6.292;2023-04-06T08:46:48;14.90;39.70
44537;DHT22;30245;51.966;6.292;2023-04-06T08:49:16;14.90;39.60
44537;DHT22;30245;51.966;6.292;2023-04-06T08:51:42;15.00;40.20
44537;DHT22;30245;51.966;6.292;2023-04-06T08:54:07;15.10;39.50
44537;DHT22;30245;51.966;6.292;2023-04-06T08:56:37;15.10;39.30
44537;DHT22;30245;51.966;6.292;2023-04-06T08:59:03;15.10;39.20
44537;DHT22;30245;51.966;6.292;2023-04-06T09:01:31;15.20;39.20
44537;DHT22;30245;51.966;6.292;2023-04-06T09:03:58;15.30;39.10
44537;DHT22;30245;51.966;6.292;2023-04-06T09:06:26;15.30;39.10
44537;DHT22;30245;51.966;6.292;2023-04-06T09:08:52;15.40;39.00
44537;DHT22;30245;51.966;6.292;2023-04-06T09:11:18;15.40;39.00
44537;DHT22;30245;51.966;6.292;2023-04-06T09:13:48;15.50;38.80
44537;DHT22;30245;51.966;6.292;2023-04-06T09:16:14;15.50;38.60
44537;DHT22;30245;51.966;6.292;2023-04-06T09:18:41;15.40;38.70
44537;DHT22;30245;51.966;6.292;2023-04-06T09:21:07;15.40;38.80
44537;DHT22;30245;51.966;6.292;2023-04-06T09:23:34;15.50;38.80
44537;DHT22;30245;51.966;6.292;2023-04-06T09:26:08;15.70;38.70
44537;DHT22;30245;51.966;6.292;2023-04-06T09:28:51;15.80;38.50
44537;DHT22;30245;51.966;6.292;2023-04-06T09:31:22;16.00;38.50
44537;DHT22;30245;51.966;6.292;2023-04-06T09:33:49;16.10;38.20
44537;DHT22;30245;51.966;6.292;2023-04-06T09:36:14;16.30;38.10
44537;DHT22;30245;51.966;6.292;2023-04-06T09:38:53;16.40;37.90
44537;DHT22;30245;51.966;6.292;2023-04-06T09:41:30;16.60;37.70
44537;DHT22;30245;51.966;6.292;2023-04-06T09:44:03;16.60;37.40
44537;DHT22;30245;51.966;6.292;2023-04-06T09:46:31;16.70;37.40
44537;DHT22;30245;51.966;6.292;2023-04-06T09:48:58;16.80;37.30
44537;DHT22;30245;51.966;6.292;2023-04-06T09:51:25;16.90;37.10
44537;DHT22;30245;51.966;6.292;2023-04-06T09:53:52;17.00;36.90
44537;DHT22;30245;51.966;6.292;2023-04-06T09:56:23;17.20;36.70
44537;DHT22;30245;51.966;6.292;2023-04-06T09:58:52;17.30;36.50
44537;DHT22;30245;51.966;6.292;2023-04-06T10:01:20;17.50;36.30
44537;DHT22;30245;51.966;6.292;2023-04-06T10:06:16;17.70;35.50
44537;DHT22;30245;51.966;6.292;2023-04-06T10:08:45;17.70;35.30
44537;DHT22;30245;51.966;6.292;2023-04-06T10:11:13;17.70;35.20
44537;DHT22;30245;51.966;6.292;2023-04-06T10:13:38;17.60;35.20
44537;DHT22;30245;51.966;6.292;2023-04-06T10:16:05;17.70;35.40
44537;DHT22;30245;51.966;6.292;2023-04-06T10:18:32;17.90;35.20
44537;DHT22;30245;51.966;6.292;2023-04-06T10:21:06;18.10;35.10
44537;DHT22;30245;51.966;6.292;2023-04-06T10:23:40;18.10;34.70
44537;DHT22;30245;51.966;6.292;2023-04-06T10:26:15;18.10;34.70
44537;DHT22;30245;51.966;6.292;2023-04-06T10:28:43;18.10;34.70
44537;DHT22;30245;51.966;6.292;2023-04-06T10:31:09;18.20;34.80
44537;DHT22;30245;51.966;6.292;2023-04-06T10:33:35;18.20;34.90
44537;DHT22;30245;51.966;6.292;2023-04-06T10:36:11;18.30;34.70
44537;DHT22;30245;51.966;6.292;2023-04-06T10:38:38;18.30;34.30
44537;DHT22;30245;51.966;6.292;2023-04-06T10:41:05;18.30;34.10
44537;DHT22;30245;51.966;6.292;2023-04-06T10:43:36;18.20;34.10
44537;DHT22;30245;51.966;6.292;2023-04-06T10:46:03;18.20;33.90
44537;DHT22;30245;51.966;6.292;2023-04-06T10:48:38;18.00;33.90
44537;DHT22;30245;51.966;6.292;2023-04-06T10:51:28;18.10;34.20
44537;DHT22;30245;51.966;6.292;2023-04-06T10:53:55;18.10;34.10
44537;DHT22;30245;51.966;6.292;2023-04-06T10:56:23;17.90;34.10
44537;DHT22;30245;51.966;6.292;2023-04-06T10:58:54;17.90;34.30
44537;DHT22;30245;51.966;6.292;2023-04-06T11:01:24;17.90;34.50
44537;DHT22;30245;51.966;6.292;2023-04-06T11:03:53;17.90;34.40
44537;DHT22;30245;51.966;6.292;2023-04-06T11:06:24;17.90;34.50
44537;DHT22;30245;51.966;6.292;2023-04-06T11:08:51;17.80;34.20
44537;DHT22;30245;51.966;6.292;2023-04-06T11:11:19;17.80;34.20
44537;DHT22;30245;51.966;6.292;2023-04-06T11:13:55;17.70;34.30
44537;DHT22;30245;51.966;6.292;2023-04-06T11:16:22;17.60;34.20
44537;DHT22;30245;51.966;6.292;2023-04-06T11:21:16;17.50;34.40
44537;DHT22;30245;51.966;6.292;2023-04-06T11:23:42;17.60;34.40
44537;DHT22;30245;51.966;6.292;2023-04-06T11:26:12;17.60;34.10
44537;DHT22;30245;51.966;6.292;2023-04-06T11:28:39;17.70;33.90
44537;DHT22;30245;51.966;6.292;2023-04-06T11:31:05;17.70;33.60
44537;DHT22;30245;51.966;6.292;2023-04-06T11:33:36;17.60;33.50
44537;DHT22;30245;51.966;6.292;2023-04-06T11:36:02;17.60;33.70
44537;DHT22;30245;51.966;6.292;2023-04-06T11:38:29;17.60;33.80
44537;DHT22;30245;51.966;6.292;2023-04-06T11:40:55;17.70;34.00
44537;DHT22;30245;51.966;6.292;2023-04-06T11:43:30;17.60;34.00
44537;DHT22;30245;51.966;6.292;2023-04-06T11:46:03;17.50;34.30
44537;DHT22;30245;51.966;6.292;2023-04-06T11:48:30;17.30;34.40
44537;DHT22;30245;51.966;6.292;2023-04-06T11:50:59;17.20;34.70
44537;DHT22;30245;51.966;6.292;2023-04-06T11:53:27;17.10;34.80
44537;DHT22;30245;51.966;6.292;2023-04-06T11:55:53;17.10;34.90
44537;DHT22;30245;51.966;6.292;2023-04-06T11:58:19;17.20;34.90
44537;DHT22;30245;51.966;6.292;2023-04-06T12:00:45;17.30;35.00
44537;DHT22;30245;51.966;6.292;2023-04-06T12:03:14;17.60;35.00
44537;DHT22;30245;51.966;6.292;2023-04-06T12:05:39;17.70;34.70
44537;DHT22;30245;51.966;6.292;2023-04-06T12:08:05;17.70;34.60
44537;DHT22;30245;51.966;6.292;2023-04-06T12:10:31;17.60;34.80
44537;DHT22;30245;51.966;6.292;2023-04-06T12:12:56;17.80;34.80
44537;DHT22;30245;51.966;6.292;2023-04-06T12:15:22;17.70;34.80
44537;DHT22;30245;51.966;6.292;2023-04-06T12:17:48;17.70;34.90
44537;DHT22;30245;51.966;6.292;2023-04-06T12:20:15;17.70;35.00
44537;DHT22;30245;51.966;6.292;2023-04-06T12:22:40;17.90;35.20
44537;DHT22;30245;51.966;6.292;2023-04-06T12:25:06;18.00;35.20
44537;DHT22;30245;51.966;6.292;2023-04-06T12:27:32;18.00;35.00
44537;DHT22;30245;51.966;6.292;2023-04-06T12:29:58;18.20;35.00
44537;DHT22;30245;51.966;6.292;2023-04-06T12:32:23;18.20;35.00
44537;DHT22;30245;51.966;6.292;2023-04-06T12:34:51;18.20;35.10
44537;DHT22;30245;51.966;6.292;2023-04-06T12:37:17;18.10;35.20
44537;DHT22;30245;51.966;6.292;2023-04-06T12:39:43;18.00;35.60
44537;DHT22;30245;51.966;6.292;2023-04-06T12:42:10;18.00;35.80
44537;DHT22;30245;51.966;6.292;2023-04-06T12:44:36;18.00;35.90
44537;DHT22;30245;51.966;6.292;2023-04-06T12:47:01;17.90;36.00
44537;DHT22;30245;51.966;6.292;2023-04-06T12:49:27;17.70;36.30
44537;DHT22;30245;51.966;6.292;2023-04-06T12:51:53;17.60;36.80
44537;DHT22;30245;51.966;6.292;2023-04-06T12:54:19;17.50;37.00
44537;DHT22;30245;51.966;6.292;2023-04-06T12:56:45;17.50;37.30
44537;DHT22;30245;51.966;6.292;2023-04-06T12:59:10;17.40;37.70
44537;DHT22;30245;51.966;6.292;2023-04-06T13:01:36;17.20;38.40
44537;DHT22;30245;51.966;6.292;2023-04-06T13:04:02;17.10;38.90
44537;DHT22;30245;51.966;6.292;2023-04-06T13:06:28;17.00;39.30
44537;DHT22;30245;51.966;6.292;2023-04-06T13:08:55;17.00;39.70
44537;DHT22;30245;51.966;6.292;2023-04-06T13:11:21;16.90;40.20
44537;DHT22;30245;51.966;6.292;2023-04-06T13:13:49;16.70;41.00
44537;DHT22;30245;51.966;6.292;2023-04-06T13:16:15;16.60;41.50
44537;DHT22;30245;51.966;6.292;2023-04-06T13:18:41;16.50;41.90
44537;DHT22;30245;51.966;6.292;2023-04-06T13:21:07;16.30;43.20
44537;DHT22;30245;51.966;6.292;2023-04-06T13:23:33;16.10;43.70
44537;DHT22;30245;51.966;6.292;2023-04-06T13:26:04;15.90;44.20
44537;DHT22;30245;51.966;6.292;2023-04-06T13:28:31;15.80;45.20
44537;DHT22;30245;51.966;6.292;2023-04-06T13:31:02;15.70;45.60
44537;DHT22;30245;51.966;6.292;2023-04-06T13:33:28;15.60;46.30
44537;DHT22;30245;51.966;6.292;2023-04-06T13:35:54;15.40;46.50
44537;DHT22;30245;51.966;6.292;2023-04-06T13:38:20;15.40;47.20
44537;DHT22;30245;51.966;6.292;2023-04-06T13:40:45;15.40;47.10
44537;DHT22;30245;51.966;6.292;2023-04-06T13:43:11;15.30;47.90
44537;DHT22;30245;51.966;6.292;2023-04-06T13:45:37;15.20;48.10
44537;DHT22;30245;51.966;6.292;2023-04-06T13:48:03;15.30;48.30
44537;DHT22;30245;51.966;6.292;2023-04-06T13:50:29;15.30;48.20
44537;DHT22;30245;51.966;6.292;2023-04-06T13:52:55;15.30;48.30
44537;DHT22;30245;51.966;6.292;2023-04-06T13:55:21;15.20;48.70
44537;DHT22;30245;51.966;6.292;2023-04-06T13:57:49;15.20;49.00
44537;DHT22;30245;51.966;6.292;2023-04-06T14:00:15;15.20;49.50
44537;DHT22;30245;51.966;6.292;2023-04-06T14:02:41;15.10;49.60
44537;DHT22;30245;51.966;6.292;2023-04-06T14:05:07;15.10;50.20
44537;DHT22;30245;51.966;6.292;2023-04-06T14:07:33;15.00;50.80
44537;DHT22;30245;51.966;6.292;2023-04-06T14:09:58;14.90;51.00
44537;DHT22;30245;51.966;6.292;2023-04-06T14:12:24;14.90;51.10
44537;DHT22;30245;51.966;6.292;2023-04-06T14:14:50;14.90;51.20
44537;DHT22;30245;51.966;6.292;2023-04-06T14:17:15;14.80;51.40
44537;DHT22;30245;51.966;6.292;2023-04-06T14:19:41;14.70;51.40
44537;DHT22;30245;51.966;6.292;2023-04-06T14:22:07;14.60;51.60
44537;DHT22;30245;51.966;6.292;2023-04-06T14:24:34;14.60;51.90
44537;DHT22;30245;51.966;6.292;2023-04-06T14:27:01;14.50;51.80
44537;DHT22;30245;51.966;6.292;2023-04-06T14:29:28;14.50;51.80
44537;DHT22;30245;51.966;6.292;2023-04-06T14:31:53;14.50;52.10
44537;DHT22;30245;51.966;6.292;2023-04-06T14:34:28;14.40;52.60
44537;DHT22;30245;51.966;6.292;2023-04-06T14:36:53;14.30;53.30
44537;DHT22;30245;51.966;6.292;2023-04-06T14:39:19;14.30;52.60
44537;DHT22;30245;51.966;6.292;2023-04-06T14:41:45;14.40;52.60
44537;DHT22;30245;51.966;6.292;2023-04-06T14:44:13;14.40;52.50
44537;DHT22;30245;51.966;6.292;2023-04-06T14:46:38;14.40;53.00
44537;DHT22;30245;51.966;6.292;2023-04-06T14:49:04;14.50;52.40
44537;DHT22;30245;51.966;6.292;2023-04-06T14:51:30;14.50;52.50
44537;DHT22;30245;51.966;6.292;2023-04-06T14:53:56;14.40;52.50
44537;DHT22;30245;51.966;6.292;2023-04-06T14:56:22;14.40;52.60
44537;DHT22;30245;51.966;6.292;2023-04-06T14:58:51;14.40;52.60
44537;DHT22;30245;51.966;6.292;2023-04-06T15:01:18;14.40;52.80
44537;DHT22;30245;51.966;6.292;2023-04-06T15:03:45;14.40;53.00
44537;DHT22;30245;51.966;6.292;2023-04-06T15:06:15;14.40;52.80
44537;DHT22;30245;51.966;6.292;2023-04-06T15:08:44;14.40;53.00
44537;DHT22;30245;51.966;6.292;2023-04-06T15:11:10;14.30;53.30
44537;DHT22;30245;51.966;6.292;2023-04-06T15:13:36;14.30;53.00
44537;DHT22;30245;51.966;6.292;2023-04-06T15:16:02;14.40;53.30
44537;DHT22;30245;51.966;6.292;2023-04-06T15:18:28;14.30;53.40
44537;DHT22;30245;51.966;6.292;2023-04-06T15:20:54;14.30;53.50
44537;DHT22;30245;51.966;6.292;2023-04-06T15:23:20;14.30;53.60
44537;DHT22;30245;51.966;6.292;2023-04-06T15:25:46;14.30;53.70
44537;DHT22;30245;51.966;6.292;2023-04-06T15:28:11;14.20;53.70
44537;DHT22;30245;51.966;6.292;2023-04-06T15:30:38;14.30;53.90
44537;DHT22;30245;51.966;6.292;2023-04-06T15:33:04;14.20;53.90